sensor_id;sensor_type;location;lat;lon;timestamp;P1;durP1;ratioP1;P2;durP2;ratioP2
70253;SDS011;57649;42.968;1.608;2023-12-20T00:00:12;12.55;;;7.93;;
70253;SDS011;57649;42.968;1.608;2023-12-20T00:02:38;12.07;;;7.80;;
70253;SDS011;57649;42.968;1.608;2023-12-20T00:05:03;12.52;;;7.68;;
70253;SDS011;57649;42.968;1.608;2023-12-20T00:07:29;11.85;;;7.82;;
70253;SDS011;57649;42.968;1.608;2023-12-20T00:09:54;11.48;;;7.85;;
70253;SDS011;57649;42.968;1.608;2023-12-20T00:12:20;10.05;;;7.43;;
70253;SDS011;57649;42.968;1.608;2023-12-20T00:14:45;10.13;;;6.55;;
70253;SDS011;57649;42.968;1.608;2023-12-20T00:17:11;12.63;;;7.65;;
70253;SDS011;57649;42.968;1.608;2023-12-20T00:19:36;11.50;;;7.90;;
70253;SDS011;57649;42.968;1.608;2023-12-20T00:22:02;12.55;;;6.97;;
70253;SDS011;57649;42.968;1.608;2023-12-20T00:24:27;11.07;;;7.03;;
70253;SDS011;57649;42.968;1.608;2023-12-20T00:26:52;9.88;;;7.30;;
70253;SDS011;57649;42.968;1.608;2023-12-20T00:29:18;9.35;;;6.38;;
70253;SDS011;57649;42.968;1.608;2023-12-20T00:31:43;10.15;;;7.07;;
70253;SDS011;57649;42.968;1.608;2023-12-20T00:34:09;9.35;;;6.75;;
70253;SDS011;57649;42.968;1.608;2023-12-20T00:36:34;11.73;;;6.30;;
70253;SDS011;57649;42.968;1.608;2023-12-20T00:38:59;8.82;;;6.30;;
70253;SDS011;57649;42.968;1.608;2023-12-20T00:41:25;9.85;;;6.88;;
70253;SDS011;57649;42.968;1.608;2023-12-20T00:43:50;9.27;;;6.43;;
70253;SDS011;57649;42.968;1.608;2023-12-20T00:46:16;9.45;;;6.55;;
70253;SDS011;57649;42.968;1.608;2023-12-20T00:48:41;9.40;;;6.10;;
70253;SDS011;57649;42.968;1.608;2023-12-20T00:51:07;9.20;;;5.72;;
70253;SDS011;57649;42.968;1.608;2023-12-20T00:53:33;9.02;;;5.57;;
70253;SDS011;57649;42.968;1.608;2023-12-20T00:55:58;10.18;;;5.70;;
70253;SDS011;57649;42.968;1.608;2023-12-20T00:58:24;8.20;;;5.38;;
70253;SDS011;57649;42.968;1.608;2023-12-20T01:00:49;8.55;;;5.95;;
70253;SDS011;57649;42.968;1.608;2023-12-20T01:03:14;8.98;;;6.00;;
70253;SDS011;57649;42.968;1.608;2023-12-20T01:05:40;9.88;;;6.38;;
70253;SDS011;57649;42.968;1.608;2023-12-20T01:08:05;9.05;;;6.55;;
70253;SDS011;57649;42.968;1.608;2023-12-20T01:10:31;8.63;;;5.63;;
70253;SDS011;57649;42.968;1.608;2023-12-20T01:12:57;9.30;;;6.00;;
70253;SDS011;57649;42.968;1.608;2023-12-20T01:15:22;9.45;;;5.97;;
70253;SDS011;57649;42.968;1.608;2023-12-20T01:17:48;8.77;;;5.53;;
70253;SDS011;57649;42.968;1.608;2023-12-20T01:20:14;8.95;;;5.63;;
70253;SDS011;57649;42.968;1.608;2023-12-20T01:22:40;7.22;;;5.15;;
70253;SDS011;57649;42.968;1.608;2023-12-20T01:25:07;7.32;;;5.45;;
70253;SDS011;57649;42.968;1.608;2023-12-20T01:27:33;7.82;;;4.80;;
70253;SDS011;57649;42.968;1.608;2023-12-20T01:29:58;7.07;;;4.72;;
70253;SDS011;57649;42.968;1.608;2023-12-20T01:32:24;7.07;;;4.75;;
70253;SDS011;57649;42.968;1.608;2023-12-20T01:34:49;7.05;;;5.07;;
70253;SDS011;57649;42.968;1.608;2023-12-20T01:37:15;6.63;;;4.68;;
70253;SDS011;57649;42.968;1.608;2023-12-20T01:39:41;7.53;;;4.80;;
70253;SDS011;57649;42.968;1.608;2023-12-20T01:42:06;9.10;;;5.22;;
70253;SDS011;57649;42.968;1.608;2023-12-20T01:44:32;8.35;;;5.57;;
70253;SDS011;57649;42.968;1.608;2023-12-20T01:46:57;7.32;;;5.07;;
70253;SDS011;57649;42.968;1.608;2023-12-20T01:49:23;9.15;;;5.43;;
70253;SDS011;57649;42.968;1.608;2023-12-20T01:51:49;7.03;;;4.85;;
70253;SDS011;57649;42.968;1.608;2023-12-20T01:54:15;6.75;;;5.18;;
70253;SDS011;57649;42.968;1.608;2023-12-20T01:56:41;8.75;;;5.32;;
70253;SDS011;57649;42.968;1.608;2023-12-20T01:59:07;6.80;;;4.30;;
70253;SDS011;57649;42.968;1.608;2023-12-20T02:01:34;7.38;;;5.43;;
70253;SDS011;57649;42.968;1.608;2023-12-20T02:04:00;6.93;;;4.32;;
70253;SDS011;57649;42.968;1.608;2023-12-20T02:06:28;6.28;;;4.72;;
70253;SDS011;57649;42.968;1.608;2023-12-20T02:08:55;6.18;;;4.60;;
70253;SDS011;57649;42.968;1.608;2023-12-20T02:11:21;7.88;;;5.15;;
70253;SDS011;57649;42.968;1.608;2023-12-20T02:13:47;6.55;;;4.82;;
70253;SDS011;57649;42.968;1.608;2023-12-20T02:16:12;8.13;;;4.82;;
70253;SDS011;57649;42.968;1.608;2023-12-20T02:18:38;7.85;;;5.22;;
70253;SDS011;57649;42.968;1.608;2023-12-20T02:21:07;8.25;;;5.70;;
70253;SDS011;57649;42.968;1.608;2023-12-20T02:25:59;7.50;;;5.45;;
70253;SDS011;57649;42.968;1.608;2023-12-20T02:28:25;8.43;;;5.20;;
70253;SDS011;57649;42.968;1.608;2023-12-20T02:30:51;7.63;;;4.75;;
70253;SDS011;57649;42.968;1.608;2023-12-20T02:33:16;6.03;;;4.15;;
70253;SDS011;57649;42.968;1.608;2023-12-20T02:35:42;7.35;;;5.15;;
70253;SDS011;57649;42.968;1.608;2023-12-20T02:38:07;7.07;;;4.40;;
70253;SDS011;57649;42.968;1.608;2023-12-20T02:40:33;8.13;;;4.60;;
70253;SDS011;57649;42.968;1.608;2023-12-20T02:42:58;8.05;;;4.85;;
70253;SDS011;57649;42.968;1.608;2023-12-20T02:45:23;7.32;;;4.30;;
70253;SDS011;57649;42.968;1.608;2023-12-20T02:47:49;7.28;;;4.50;;
70253;SDS011;57649;42.968;1.608;2023-12-20T02:50:15;6.63;;;4.25;;
70253;SDS011;57649;42.968;1.608;2023-12-20T02:52:40;6.63;;;4.53;;
70253;SDS011;57649;42.968;1.608;2023-12-20T02:55:08;6.03;;;4.30;;
70253;SDS011;57649;42.968;1.608;2023-12-20T02:57:33;7.53;;;4.05;;
70253;SDS011;57649;42.968;1.608;2023-12-20T03:00:01;6.07;;;4.15;;
70253;SDS011;57649;42.968;1.608;2023-12-20T03:02:26;5.68;;;4.22;;
70253;SDS011;57649;42.968;1.608;2023-12-20T03:04:52;6.25;;;4.55;;
70253;SDS011;57649;42.968;1.608;2023-12-20T03:07:17;6.35;;;4.28;;
70253;SDS011;57649;42.968;1.608;2023-12-20T03:09:42;7.70;;;4.20;;
70253;SDS011;57649;42.968;1.608;2023-12-20T03:12:08;6.20;;;4.45;;
70253;SDS011;57649;42.968;1.608;2023-12-20T03:14:33;6.75;;;4.55;;
70253;SDS011;57649;42.968;1.608;2023-12-20T03:16:59;6.32;;;4.65;;
70253;SDS011;57649;42.968;1.608;2023-12-20T03:19:24;4.95;;;3.80;;
70253;SDS011;57649;42.968;1.608;2023-12-20T03:21:50;5.60;;;3.90;;
70253;SDS011;57649;42.968;1.608;2023-12-20T03:24:15;5.45;;;3.65;;
70253;SDS011;57649;42.968;1.608;2023-12-20T03:26:41;10.77;;;5.30;;
70253;SDS011;57649;42.968;1.608;2023-12-20T03:29:06;8.75;;;5.25;;
70253;SDS011;57649;42.968;1.608;2023-12-20T03:31:31;6.82;;;4.65;;
70253;SDS011;57649;42.968;1.608;2023-12-20T03:33:57;9.40;;;6.18;;
70253;SDS011;57649;42.968;1.608;2023-12-20T03:36:22;9.02;;;5.78;;
70253;SDS011;57649;42.968;1.608;2023-12-20T03:38:48;9.70;;;6.28;;
70253;SDS011;57649;42.968;1.608;2023-12-20T03:41:13;8.95;;;5.25;;
70253;SDS011;57649;42.968;1.608;2023-12-20T03:43:39;10.20;;;6.53;;
70253;SDS011;57649;42.968;1.608;2023-12-20T03:46:04;10.35;;;5.32;;
70253;SDS011;57649;42.968;1.608;2023-12-20T03:48:30;8.93;;;6.03;;
70253;SDS011;57649;42.968;1.608;2023-12-20T03:50:56;9.90;;;7.22;;
70253;SDS011;57649;42.968;1.608;2023-12-20T03:53:22;8.57;;;6.05;;
70253;SDS011;57649;42.968;1.608;2023-12-20T03:55:47;10.27;;;6.95;;
70253;SDS011;57649;42.968;1.608;2023-12-20T03:58:13;7.97;;;6.03;;
70253;SDS011;57649;42.968;1.608;2023-12-20T04:00:38;8.95;;;5.82;;
70253;SDS011;57649;42.968;1.608;2023-12-20T04:03:04;7.65;;;5.43;;
70253;SDS011;57649;42.968;1.608;2023-12-20T04:05:29;8.60;;;5.90;;
70253;SDS011;57649;42.968;1.608;2023-12-20T04:07:55;11.93;;;5.60;;
70253;SDS011;57649;42.968;1.608;2023-12-20T04:10:20;13.48;;;8.43;;
70253;SDS011;57649;42.968;1.608;2023-12-20T04:12:45;19.63;;;12.43;;
70253;SDS011;57649;42.968;1.608;2023-12-20T04:15:11;19.60;;;12.27;;
70253;SDS011;57649;42.968;1.608;2023-12-20T04:17:37;9.10;;;6.80;;
70253;SDS011;57649;42.968;1.608;2023-12-20T04:20:02;8.25;;;5.55;;
70253;SDS011;57649;42.968;1.608;2023-12-20T04:22:28;8.20;;;5.90;;
70253;SDS011;57649;42.968;1.608;2023-12-20T04:24:53;10.25;;;7.38;;
70253;SDS011;57649;42.968;1.608;2023-12-20T04:27:19;9.02;;;7.00;;
70253;SDS011;57649;42.968;1.608;2023-12-20T04:29:44;13.80;;;7.85;;
70253;SDS011;57649;42.968;1.608;2023-12-20T04:32:09;11.50;;;7.25;;
70253;SDS011;57649;42.968;1.608;2023-12-20T04:34:35;10.27;;;6.55;;
70253;SDS011;57649;42.968;1.608;2023-12-20T04:37:01;10.70;;;7.63;;
70253;SDS011;57649;42.968;1.608;2023-12-20T04:39:27;12.10;;;8.25;;
70253;SDS011;57649;42.968;1.608;2023-12-20T04:41:52;9.95;;;7.65;;
70253;SDS011;57649;42.968;1.608;2023-12-20T04:44:17;9.90;;;6.22;;
70253;SDS011;57649;42.968;1.608;2023-12-20T04:46:43;9.15;;;6.05;;
70253;SDS011;57649;42.968;1.608;2023-12-20T04:49:09;6.82;;;5.22;;
70253;SDS011;57649;42.968;1.608;2023-12-20T04:51:34;6.10;;;5.10;;
70253;SDS011;57649;42.968;1.608;2023-12-20T04:54:01;7.35;;;4.93;;
70253;SDS011;57649;42.968;1.608;2023-12-20T04:56:26;6.78;;;4.80;;
70253;SDS011;57649;42.968;1.608;2023-12-20T04:58:52;7.35;;;4.85;;
70253;SDS011;57649;42.968;1.608;2023-12-20T05:01:18;7.38;;;4.78;;
70253;SDS011;57649;42.968;1.608;2023-12-20T05:03:43;7.30;;;4.45;;
70253;SDS011;57649;42.968;1.608;2023-12-20T05:06:09;7.40;;;4.80;;
70253;SDS011;57649;42.968;1.608;2023-12-20T05:08:35;6.70;;;4.65;;
70253;SDS011;57649;42.968;1.608;2023-12-20T05:11:00;6.97;;;5.88;;
70253;SDS011;57649;42.968;1.608;2023-12-20T05:13:25;8.55;;;5.15;;
70253;SDS011;57649;42.968;1.608;2023-12-20T05:15:51;7.72;;;5.38;;
70253;SDS011;57649;42.968;1.608;2023-12-20T05:18:16;7.40;;;5.13;;
70253;SDS011;57649;42.968;1.608;2023-12-20T05:20:42;8.38;;;5.32;;
70253;SDS011;57649;42.968;1.608;2023-12-20T05:23:07;12.02;;;6.40;;
70253;SDS011;57649;42.968;1.608;2023-12-20T05:25:33;6.82;;;4.97;;
70253;SDS011;57649;42.968;1.608;2023-12-20T05:27:58;7.07;;;4.85;;
70253;SDS011;57649;42.968;1.608;2023-12-20T05:30:23;7.82;;;5.78;;
70253;SDS011;57649;42.968;1.608;2023-12-20T05:32:49;8.93;;;6.53;;
70253;SDS011;57649;42.968;1.608;2023-12-20T05:35:14;7.32;;;5.20;;
70253;SDS011;57649;42.968;1.608;2023-12-20T05:37:40;7.63;;;5.25;;
70253;SDS011;57649;42.968;1.608;2023-12-20T05:40:06;8.18;;;5.70;;
70253;SDS011;57649;42.968;1.608;2023-12-20T05:42:35;7.68;;;5.50;;
70253;SDS011;57649;42.968;1.608;2023-12-20T05:45:00;8.90;;;6.07;;
70253;SDS011;57649;42.968;1.608;2023-12-20T05:47:26;7.88;;;5.95;;
70253;SDS011;57649;42.968;1.608;2023-12-20T05:49:51;7.90;;;5.68;;
70253;SDS011;57649;42.968;1.608;2023-12-20T05:52:18;10.02;;;5.90;;
70253;SDS011;57649;42.968;1.608;2023-12-20T05:54:43;8.50;;;6.20;;
70253;SDS011;57649;42.968;1.608;2023-12-20T05:57:09;9.88;;;6.10;;
70253;SDS011;57649;42.968;1.608;2023-12-20T05:59:34;9.00;;;6.10;;
70253;SDS011;57649;42.968;1.608;2023-12-20T06:01:59;9.32;;;5.95;;
70253;SDS011;57649;42.968;1.608;2023-12-20T06:04:25;8.55;;;5.90;;
70253;SDS011;57649;42.968;1.608;2023-12-20T06:06:50;9.00;;;5.68;;
70253;SDS011;57649;42.968;1.608;2023-12-20T06:09:16;8.27;;;5.95;;
70253;SDS011;57649;42.968;1.608;2023-12-20T06:11:41;10.15;;;5.85;;
70253;SDS011;57649;42.968;1.608;2023-12-20T06:14:06;9.07;;;6.18;;
70253;SDS011;57649;42.968;1.608;2023-12-20T06:16:32;11.68;;;5.82;;
70253;SDS011;57649;42.968;1.608;2023-12-20T06:18:57;11.45;;;6.60;;
70253;SDS011;57649;42.968;1.608;2023-12-20T06:21:23;13.73;;;9.68;;
70253;SDS011;57649;42.968;1.608;2023-12-20T06:23:48;13.55;;;8.07;;
70253;SDS011;57649;42.968;1.608;2023-12-20T06:26:13;24.75;;;12.45;;
70253;SDS011;57649;42.968;1.608;2023-12-20T06:28:39;9.43;;;5.78;;
70253;SDS011;57649;42.968;1.608;2023-12-20T06:31:04;18.70;;;9.43;;
70253;SDS011;57649;42.968;1.608;2023-12-20T06:33:30;13.68;;;6.75;;
70253;SDS011;57649;42.968;1.608;2023-12-20T06:35:56;10.13;;;6.53;;
70253;SDS011;57649;42.968;1.608;2023-12-20T06:38:22;9.75;;;6.30;;
70253;SDS011;57649;42.968;1.608;2023-12-20T06:40:48;10.40;;;7.45;;
70253;SDS011;57649;42.968;1.608;2023-12-20T06:43:14;9.75;;;5.85;;
70253;SDS011;57649;42.968;1.608;2023-12-20T06:45:39;8.77;;;6.32;;
70253;SDS011;57649;42.968;1.608;2023-12-20T06:48:05;8.02;;;6.10;;
70253;SDS011;57649;42.968;1.608;2023-12-20T06:50:31;8.95;;;6.03;;
70253;SDS011;57649;42.968;1.608;2023-12-20T06:52:56;9.27;;;6.00;;
70253;SDS011;57649;42.968;1.608;2023-12-20T06:55:22;12.43;;;7.40;;
70253;SDS011;57649;42.968;1.608;2023-12-20T06:57:48;8.27;;;5.88;;
70253;SDS011;57649;42.968;1.608;2023-12-20T07:00:13;9.40;;;6.25;;
70253;SDS011;57649;42.968;1.608;2023-12-20T07:02:39;13.80;;;8.48;;
70253;SDS011;57649;42.968;1.608;2023-12-20T07:05:05;11.93;;;8.45;;
70253;SDS011;57649;42.968;1.608;2023-12-20T07:07:31;13.82;;;9.10;;
70253;SDS011;57649;42.968;1.608;2023-12-20T07:09:56;8.88;;;6.22;;
70253;SDS011;57649;42.968;1.608;2023-12-20T07:12:22;13.00;;;7.20;;
70253;SDS011;57649;42.968;1.608;2023-12-20T07:14:47;10.73;;;6.80;;
70253;SDS011;57649;42.968;1.608;2023-12-20T07:17:13;9.23;;;6.10;;
70253;SDS011;57649;42.968;1.608;2023-12-20T07:19:40;10.00;;;6.18;;
70253;SDS011;57649;42.968;1.608;2023-12-20T07:22:06;3.55;;;2.45;;
70253;SDS011;57649;42.968;1.608;2023-12-20T07:24:32;12.18;;;8.20;;
70253;SDS011;57649;42.968;1.608;2023-12-20T07:26:59;7.70;;;4.88;;
70253;SDS011;57649;42.968;1.608;2023-12-20T07:29:25;2.78;;;1.80;;
70253;SDS011;57649;42.968;1.608;2023-12-20T07:31:50;2.95;;;2.22;;
70253;SDS011;57649;42.968;1.608;2023-12-20T07:34:18;3.30;;;1.90;;
70253;SDS011;57649;42.968;1.608;2023-12-20T07:36:44;5.65;;;2.00;;
70253;SDS011;57649;42.968;1.608;2023-12-20T07:39:09;5.78;;;4.20;;
70253;SDS011;57649;42.968;1.608;2023-12-20T07:41:35;3.92;;;1.80;;
70253;SDS011;57649;42.968;1.608;2023-12-20T07:44:00;1.73;;;0.95;;
70253;SDS011;57649;42.968;1.608;2023-12-20T07:46:26;8.50;;;5.68;;
70253;SDS011;57649;42.968;1.608;2023-12-20T07:48:51;10.18;;;5.03;;
70253;SDS011;57649;42.968;1.608;2023-12-20T07:51:16;3.25;;;2.17;;
70253;SDS011;57649;42.968;1.608;2023-12-20T07:53:42;3.47;;;2.33;;
70253;SDS011;57649;42.968;1.608;2023-12-20T07:56:14;2.70;;;1.30;;
70253;SDS011;57649;42.968;1.608;2023-12-20T07:58:43;1.20;;;0.90;;
70253;SDS011;57649;42.968;1.608;2023-12-20T08:01:09;1.90;;;1.17;;
70253;SDS011;57649;42.968;1.608;2023-12-20T08:03:35;1.63;;;1.10;;
70253;SDS011;57649;42.968;1.608;2023-12-20T08:06:01;1.17;;;0.90;;
70253;SDS011;57649;42.968;1.608;2023-12-20T08:08:27;1.40;;;0.85;;
70253;SDS011;57649;42.968;1.608;2023-12-20T08:10:53;2.53;;;1.00;;
70253;SDS011;57649;42.968;1.608;2023-12-20T08:13:18;1.33;;;0.90;;
70253;SDS011;57649;42.968;1.608;2023-12-20T08:15:44;1.50;;;1.02;;
70253;SDS011;57649;42.968;1.608;2023-12-20T08:18:09;1.02;;;0.73;;
70253;SDS011;57649;42.968;1.608;2023-12-20T08:20:34;1.08;;;0.70;;
70253;SDS011;57649;42.968;1.608;2023-12-20T08:23:00;0.52;;;0.50;;
70253;SDS011;57649;42.968;1.608;2023-12-20T08:25:25;1.58;;;0.65;;
70253;SDS011;57649;42.968;1.608;2023-12-20T08:27:52;0.47;;;0.47;;
70253;SDS011;57649;42.968;1.608;2023-12-20T08:30:18;0.50;;;0.50;;
70253;SDS011;57649;42.968;1.608;2023-12-20T08:32:46;0.77;;;0.50;;
70253;SDS011;57649;42.968;1.608;2023-12-20T08:35:15;0.50;;;0.50;;
70253;SDS011;57649;42.968;1.608;2023-12-20T08:37:40;0.50;;;0.50;;
70253;SDS011;57649;42.968;1.608;2023-12-20T08:40:06;0.40;;;0.40;;
70253;SDS011;57649;42.968;1.608;2023-12-20T08:42:31;0.95;;;0.52;;
70253;SDS011;57649;42.968;1.608;2023-12-20T08:44:57;0.40;;;0.40;;
70253;SDS011;57649;42.968;1.608;2023-12-20T08:47:26;0.80;;;0.60;;
70253;SDS011;57649;42.968;1.608;2023-12-20T08:49:52;0.73;;;0.50;;
70253;SDS011;57649;42.968;1.608;2023-12-20T08:52:21;0.53;;;0.53;;
70253;SDS011;57649;42.968;1.608;2023-12-20T08:54:48;0.63;;;0.52;;
70253;SDS011;57649;42.968;1.608;2023-12-20T08:57:13;0.45;;;0.32;;
70253;SDS011;57649;42.968;1.608;2023-12-20T08:59:39;0.35;;;0.35;;
70253;SDS011;57649;42.968;1.608;2023-12-20T09:02:04;1.08;;;0.55;;
70253;SDS011;57649;42.968;1.608;2023-12-20T09:04:30;0.90;;;0.70;;
70253;SDS011;57649;42.968;1.608;2023-12-20T09:06:55;0.65;;;0.60;;
70253;SDS011;57649;42.968;1.608;2023-12-20T09:09:20;1.20;;;0.90;;
70253;SDS011;57649;42.968;1.608;2023-12-20T09:11:46;0.85;;;0.70;;
70253;SDS011;57649;42.968;1.608;2023-12-20T09:14:13;0.73;;;0.55;;
70253;SDS011;57649;42.968;1.608;2023-12-20T09:16:38;0.70;;;0.52;;
70253;SDS011;57649;42.968;1.608;2023-12-20T09:19:04;0.80;;;0.60;;
70253;SDS011;57649;42.968;1.608;2023-12-20T09:21:29;1.10;;;0.80;;
70253;SDS011;57649;42.968;1.608;2023-12-20T09:23:55;1.10;;;1.00;;
70253;SDS011;57649;42.968;1.608;2023-12-20T09:26:20;3.53;;;2.30;;
70253;SDS011;57649;42.968;1.608;2023-12-20T09:28:46;1.10;;;1.00;;
70253;SDS011;57649;42.968;1.608;2023-12-20T09:31:11;1.40;;;1.30;;
70253;SDS011;57649;42.968;1.608;2023-12-20T09:33:37;1.48;;;1.10;;
70253;SDS011;57649;42.968;1.608;2023-12-20T09:36:02;1.25;;;0.80;;
70253;SDS011;57649;42.968;1.608;2023-12-20T09:38:28;1.10;;;0.80;;
70253;SDS011;57649;42.968;1.608;2023-12-20T09:40:53;1.52;;;0.88;;
70253;SDS011;57649;42.968;1.608;2023-12-20T09:43:20;1.10;;;0.90;;
70253;SDS011;57649;42.968;1.608;2023-12-20T09:45:48;1.45;;;0.90;;
70253;SDS011;57649;42.968;1.608;2023-12-20T09:48:18;0.65;;;0.63;;
70253;SDS011;57649;42.968;1.608;2023-12-20T09:50:44;1.75;;;1.17;;
70253;SDS011;57649;42.968;1.608;2023-12-20T09:53:12;1.42;;;1.02;;
70253;SDS011;57649;42.968;1.608;2023-12-20T09:55:42;2.05;;;1.35;;
70253;SDS011;57649;42.968;1.608;2023-12-20T09:58:07;1.40;;;1.10;;
70253;SDS011;57649;42.968;1.608;2023-12-20T10:00:36;2.53;;;1.98;;
70253;SDS011;57649;42.968;1.608;2023-12-20T10:03:02;2.13;;;1.33;;
70253;SDS011;57649;42.968;1.608;2023-12-20T10:05:31;1.50;;;1.03;;
70253;SDS011;57649;42.968;1.608;2023-12-20T10:10:26;1.88;;;1.27;;
70253;SDS011;57649;42.968;1.608;2023-12-20T10:15:27;2.08;;;1.30;;
70253;SDS011;57649;42.968;1.608;2023-12-20T10:17:52;1.40;;;1.10;;
70253;SDS011;57649;42.968;1.608;2023-12-20T10:20:17;1.77;;;1.38;;
70253;SDS011;57649;42.968;1.608;2023-12-20T10:22:43;2.58;;;1.60;;
70253;SDS011;57649;42.968;1.608;2023-12-20T10:25:08;1.58;;;1.15;;
70253;SDS011;57649;42.968;1.608;2023-12-20T10:27:34;2.85;;;1.90;;
70253;SDS011;57649;42.968;1.608;2023-12-20T10:30:00;2.30;;;1.70;;
70253;SDS011;57649;42.968;1.608;2023-12-20T10:32:26;3.33;;;1.92;;
70253;SDS011;57649;42.968;1.608;2023-12-20T10:34:56;2.88;;;1.70;;
70253;SDS011;57649;42.968;1.608;2023-12-20T10:37:21;2.85;;;1.73;;
70253;SDS011;57649;42.968;1.608;2023-12-20T10:39:51;5.28;;;3.08;;
70253;SDS011;57649;42.968;1.608;2023-12-20T10:42:21;3.15;;;1.60;;
70253;SDS011;57649;42.968;1.608;2023-12-20T10:44:48;4.05;;;2.03;;
70253;SDS011;57649;42.968;1.608;2023-12-20T10:47:15;2.20;;;1.52;;
70253;SDS011;57649;42.968;1.608;2023-12-20T10:49:42;4.10;;;2.20;;
70253;SDS011;57649;42.968;1.608;2023-12-20T10:52:09;4.75;;;2.17;;
70253;SDS011;57649;42.968;1.608;2023-12-20T10:54:36;3.10;;;2.13;;
70253;SDS011;57649;42.968;1.608;2023-12-20T10:57:03;2.65;;;1.50;;
70253;SDS011;57649;42.968;1.608;2023-12-20T10:59:30;3.88;;;1.73;;
70253;SDS011;57649;42.968;1.608;2023-12-20T11:01:58;4.18;;;1.90;;
70253;SDS011;57649;42.968;1.608;2023-12-20T11:04:34;2.80;;;1.73;;
70253;SDS011;57649;42.968;1.608;2023-12-20T11:07:08;4.45;;;1.80;;
70253;SDS011;57649;42.968;1.608;2023-12-20T11:09:46;3.20;;;1.42;;
70253;SDS011;57649;42.968;1.608;2023-12-20T11:12:22;2.95;;;1.70;;
70253;SDS011;57649;42.968;1.608;2023-12-20T11:14:57;4.68;;;1.73;;
70253;SDS011;57649;42.968;1.608;2023-12-20T11:17:28;3.47;;;1.50;;
70253;SDS011;57649;42.968;1.608;2023-12-20T11:22:21;2.97;;;1.35;;
70253;SDS011;57649;42.968;1.608;2023-12-20T11:24:48;14.45;;;7.72;;
70253;SDS011;57649;42.968;1.608;2023-12-20T11:27:15;12.20;;;6.75;;
70253;SDS011;57649;42.968;1.608;2023-12-20T11:29:41;82.85;;;28.83;;
70253;SDS011;57649;42.968;1.608;2023-12-20T11:34:47;5.60;;;3.45;;
70253;SDS011;57649;42.968;1.608;2023-12-20T11:37:12;7.78;;;5.10;;
70253;SDS011;57649;42.968;1.608;2023-12-20T11:39:38;3.63;;;2.15;;
70253;SDS011;57649;42.968;1.608;2023-12-20T11:42:04;2.40;;;1.70;;
70253;SDS011;57649;42.968;1.608;2023-12-20T11:44:31;1.88;;;1.20;;
70253;SDS011;57649;42.968;1.608;2023-12-20T11:46:57;3.35;;;1.50;;
70253;SDS011;57649;42.968;1.608;2023-12-20T11:49:23;6.78;;;3.28;;
70253;SDS011;57649;42.968;1.608;2023-12-20T11:51:50;5.18;;;2.80;;
70253;SDS011;57649;42.968;1.608;2023-12-20T11:54:15;2.47;;;1.20;;
70253;SDS011;57649;42.968;1.608;2023-12-20T11:56:41;1.13;;;0.80;;
70253;SDS011;57649;42.968;1.608;2023-12-20T11:59:07;4.13;;;1.52;;
70253;SDS011;57649;42.968;1.608;2023-12-20T12:01:33;4.30;;;1.58;;
70253;SDS011;57649;42.968;1.608;2023-12-20T12:04:03;3.15;;;1.70;;
70253;SDS011;57649;42.968;1.608;2023-12-20T12:06:29;4.78;;;1.48;;
70253;SDS011;57649;42.968;1.608;2023-12-20T12:08:54;1.67;;;1.10;;
70253;SDS011;57649;42.968;1.608;2023-12-20T12:11:20;1.13;;;0.82;;
70253;SDS011;57649;42.968;1.608;2023-12-20T12:13:46;1.95;;;1.10;;
70253;SDS011;57649;42.968;1.608;2023-12-20T12:16:12;1.25;;;0.88;;
70253;SDS011;57649;42.968;1.608;2023-12-20T12:18:38;1.45;;;0.80;;
70253;SDS011;57649;42.968;1.608;2023-12-20T12:21:06;1.88;;;0.80;;
70253;SDS011;57649;42.968;1.608;2023-12-20T12:23:32;2.20;;;1.00;;
70253;SDS011;57649;42.968;1.608;2023-12-20T12:25:57;4.15;;;0.98;;
70253;SDS011;57649;42.968;1.608;2023-12-20T12:28:25;2.67;;;1.15;;
70253;SDS011;57649;42.968;1.608;2023-12-20T12:30:56;3.17;;;1.92;;
70253;SDS011;57649;42.968;1.608;2023-12-20T12:33:25;4.00;;;1.75;;
70253;SDS011;57649;42.968;1.608;2023-12-20T12:35:51;2.67;;;1.30;;
70253;SDS011;57649;42.968;1.608;2023-12-20T12:38:19;4.75;;;2.00;;
70253;SDS011;57649;42.968;1.608;2023-12-20T12:40:46;3.97;;;1.35;;
70253;SDS011;57649;42.968;1.608;2023-12-20T12:43:12;2.97;;;1.45;;
70253;SDS011;57649;42.968;1.608;2023-12-20T12:45:37;2.85;;;1.10;;
70253;SDS011;57649;42.968;1.608;2023-12-20T12:48:03;4.75;;;1.60;;
70253;SDS011;57649;42.968;1.608;2023-12-20T12:50:30;3.10;;;2.10;;
70253;SDS011;57649;42.968;1.608;2023-12-20T12:52:55;1.95;;;1.13;;
70253;SDS011;57649;42.968;1.608;2023-12-20T12:55:21;2.15;;;1.60;;
70253;SDS011;57649;42.968;1.608;2023-12-20T12:57:46;1.75;;;0.90;;
70253;SDS011;57649;42.968;1.608;2023-12-20T13:00:12;3.08;;;1.20;;
70253;SDS011;57649;42.968;1.608;2023-12-20T13:02:38;3.60;;;1.52;;
70253;SDS011;57649;42.968;1.608;2023-12-20T13:05:07;2.03;;;1.20;;
70253;SDS011;57649;42.968;1.608;2023-12-20T13:07:33;2.05;;;1.40;;
70253;SDS011;57649;42.968;1.608;2023-12-20T13:09:58;6.40;;;3.55;;
70253;SDS011;57649;42.968;1.608;2023-12-20T13:12:24;2.72;;;1.33;;
70253;SDS011;57649;42.968;1.608;2023-12-20T13:14:49;2.75;;;1.40;;
70253;SDS011;57649;42.968;1.608;2023-12-20T13:17:14;3.33;;;1.63;;
70253;SDS011;57649;42.968;1.608;2023-12-20T13:19:41;3.70;;;1.95;;
70253;SDS011;57649;42.968;1.608;2023-12-20T13:22:07;2.90;;;2.00;;
70253;SDS011;57649;42.968;1.608;2023-12-20T13:24:32;2.75;;;1.25;;
70253;SDS011;57649;42.968;1.608;2023-12-20T13:26:57;2.63;;;1.30;;
70253;SDS011;57649;42.968;1.608;2023-12-20T13:29:23;6.05;;;1.42;;
70253;SDS011;57649;42.968;1.608;2023-12-20T13:31:51;2.55;;;1.20;;
70253;SDS011;57649;42.968;1.608;2023-12-20T13:34:17;4.88;;;1.20;;
70253;SDS011;57649;42.968;1.608;2023-12-20T13:36:42;2.72;;;0.98;;
70253;SDS011;57649;42.968;1.608;2023-12-20T13:39:11;3.33;;;1.00;;
70253;SDS011;57649;42.968;1.608;2023-12-20T13:41:37;4.95;;;1.63;;
70253;SDS011;57649;42.968;1.608;2023-12-20T13:44:02;4.82;;;1.42;;
70253;SDS011;57649;42.968;1.608;2023-12-20T13:46:28;1.50;;;1.02;;
70253;SDS011;57649;42.968;1.608;2023-12-20T13:48:54;2.90;;;1.42;;
70253;SDS011;57649;42.968;1.608;2023-12-20T13:51:19;5.05;;;2.40;;
70253;SDS011;57649;42.968;1.608;2023-12-20T13:53:46;2.08;;;1.08;;
70253;SDS011;57649;42.968;1.608;2023-12-20T13:56:13;5.60;;;1.65;;
70253;SDS011;57649;42.968;1.608;2023-12-20T13:58:39;5.85;;;1.38;;
70253;SDS011;57649;42.968;1.608;2023-12-20T14:01:05;5.20;;;1.50;;
70253;SDS011;57649;42.968;1.608;2023-12-20T14:03:31;5.30;;;1.30;;
70253;SDS011;57649;42.968;1.608;2023-12-20T14:05:57;6.20;;;1.40;;
70253;SDS011;57649;42.968;1.608;2023-12-20T14:08:22;5.40;;;1.23;;
70253;SDS011;57649;42.968;1.608;2023-12-20T14:10:49;5.10;;;1.40;;
70253;SDS011;57649;42.968;1.608;2023-12-20T14:13:15;4.85;;;1.42;;
70253;SDS011;57649;42.968;1.608;2023-12-20T14:15:40;3.95;;;1.40;;
70253;SDS011;57649;42.968;1.608;2023-12-20T14:18:06;3.75;;;1.60;;
70253;SDS011;57649;42.968;1.608;2023-12-20T14:20:32;4.25;;;1.60;;
70253;SDS011;57649;42.968;1.608;2023-12-20T14:23:00;5.82;;;1.38;;
70253;SDS011;57649;42.968;1.608;2023-12-20T14:25:26;4.32;;;1.25;;
70253;SDS011;57649;42.968;1.608;2023-12-20T14:27:52;4.90;;;1.88;;
70253;SDS011;57649;42.968;1.608;2023-12-20T14:30:17;5.53;;;1.40;;
70253;SDS011;57649;42.968;1.608;2023-12-20T14:32:42;5.05;;;2.15;;
70253;SDS011;57649;42.968;1.608;2023-12-20T14:35:08;4.80;;;1.75;;
70253;SDS011;57649;42.968;1.608;2023-12-20T14:37:34;5.32;;;2.50;;
70253;SDS011;57649;42.968;1.608;2023-12-20T14:40:01;5.65;;;1.25;;
70253;SDS011;57649;42.968;1.608;2023-12-20T14:42:26;2.60;;;1.20;;
70253;SDS011;57649;42.968;1.608;2023-12-20T14:44:52;3.25;;;1.17;;
70253;SDS011;57649;42.968;1.608;2023-12-20T14:47:19;4.82;;;1.90;;
70253;SDS011;57649;42.968;1.608;2023-12-20T14:49:45;5.50;;;1.50;;